Time;durP1;ratioP1;P1;durP2;ratioP2;P2;SDS_P1;SDS_P2;PMS_P1;PMS_P2;Temp;Humidity;BMP_temperature;BMP_pressure;BME280_temperature;BME280_humidity;BME280_pressure;Samples;Min_cycle;Max_cycle;Signal;HPM_P1;HPM_P2
2023/05/22 00:01:01;;;;;;;7.65;4.60;;;;;;;15.63;51.01;98646.13;5050440;28;20470;-68
2023/05/22 00:03:28;;;;;;;5.95;4.60;;;;;;;15.58;51.00;98640.75;5036944;28;20036;-68
2023/05/22 00:05:57;;;;;;;6.78;4.22;;;;;;;15.54;51.30;98639.78;5054912;28;20054;-68
2023/05/22 00:08:26;;;;;;;5.40;4.10;;;;;;;15.49;50.91;98637.19;5053740;28;20029;-68
2023/05/22 00:10:52;;;;;;;6.83;4.20;;;;;;;15.43;51.20;98631.00;5051764;28;20116;-68
2023/05/22 00:13:17;;;;;;;6.40;3.85;;;;;;;15.38;51.11;98635.91;5039200;28;20120;-68
2023/05/22 00:15:43;;;;;;;6.68;3.83;;;;;;;15.32;51.36;98629.69;5035145;28;20033;-68
2023/05/22 00:18:08;;;;;;;6.03;4.10;;;;;;;15.28;51.53;98632.31;5049841;28;20036;-68
2023/05/22 00:20:37;;;;;;;6.38;3.70;;;;;;;15.24;51.63;98630.53;5039824;28;20038;-68
2023/05/22 00:23:09;;;;;;;6.03;3.90;;;;;;;15.17;51.81;98630.97;5038417;28;20055;-68
2023/05/22 00:25:35;;;;;;;7.43;4.18;;;;;;;15.11;51.59;98633.09;5039667;28;20338;-68
2023/05/22 00:28:00;;;;;;;7.40;4.22;;;;;;;15.04;52.09;98621.69;5033460;28;20505;-68
2023/05/22 00:30:26;;;;;;;6.70;4.25;;;;;;;14.98;51.99;98623.81;5037719;28;20033;-68
2023/05/22 00:32:51;;;;;;;7.25;4.32;;;;;;;14.93;51.86;98623.97;5050918;28;20036;-68
2023/05/22 00:35:16;;;;;;;7.95;4.00;;;;;;;14.88;52.20;98619.38;5044776;28;20453;-67
2023/05/22 00:37:43;;;;;;;5.57;3.63;;;;;;;14.85;52.21;98610.94;5051549;28;20032;-68
2023/05/22 00:40:09;;;;;;;6.45;3.45;;;;;;;14.79;52.06;98606.69;5034575;28;20057;-68
2023/05/22 00:42:35;;;;;;;4.13;3.17;;;;;;;14.73;52.38;98604.06;5039387;28;20108;-68
2023/05/22 00:45:00;;;;;;;5.07;3.58;;;;;;;14.71;52.23;98602.78;5034818;28;20418;-68
2023/05/22 00:47:26;;;;;;;5.10;3.40;;;;;;;14.68;52.48;98600.63;5043563;28;20078;-68
2023/05/22 00:49:52;;;;;;;6.05;3.70;;;;;;;14.65;52.52;98598.50;5054512;28;20036;-68
2023/05/22 00:52:18;;;;;;;5.65;3.55;;;;;;;14.63;52.23;98604.38;5051266;28;20029;-68
2023/05/22 00:54:44;;;;;;;7.03;3.80;;;;;;;14.63;52.33;98600.78;5044851;28;20119;-68
2023/05/22 00:57:10;;;;;;;6.68;3.60;;;;;;;14.62;52.75;98593.63;5036413;28;20037;-68
2023/05/22 00:59:36;;;;;;;4.88;3.38;;;;;;;14.61;52.66;98597.53;5034189;28;20053;-68
2023/05/22 01:02:01;;;;;;;5.22;3.35;;;;;;;14.58;52.61;98599.78;5043235;28;20029;-67
2023/05/22 01:04:31;;;;;;;7.20;3.28;;;;;;;14.57;52.66;98600.13;5053696;28;20033;-68
2023/05/22 01:06:57;;;;;;;;;;;;;;;14.54;52.40;98603.50;5053536;28;20063;-68
2023/05/22 01:09:23;;;;;;;4.70;3.30;;;;;;;14.50;52.66;98586.75;5049289;28;19978;-68
2023/05/22 01:11:54;;;;;;;5.97;3.53;;;;;;;14.45;52.74;98597.97;5047112;28;20029;-68
2023/05/22 01:14:38;;;;;;;8.00;4.00;;;;;;;14.42;52.78;98593.09;5034063;28;20029;-68
2023/05/22 01:17:23;;;;;;;5.93;4.55;;;;;;;14.36;52.86;98588.84;5041379;28;20033;-68
2023/05/22 01:20:00;;;;;;;7.03;4.68;;;;;;;14.34;52.56;98588.34;5048053;28;20037;-68
2023/05/22 01:22:44;;;;;;;8.40;6.00;;;;;;;14.31;52.83;98591.72;5035176;28;20040;-68
2023/05/22 01:25:15;;;;;;;7.55;5.20;;;;;;;14.28;53.01;98594.00;5033858;28;20022;-67
2023/05/22 01:28:12;;;;;;;6.15;4.38;;;;;;;14.25;53.00;98593.81;5046682;28;20094;-68
2023/05/22 01:30:56;;;;;;;6.70;4.60;;;;;;;14.24;52.91;98589.44;5033755;28;20100;-68
2023/05/22 01:33:24;;;;;;;6.75;4.28;;;;;;;14.21;53.23;98593.63;5052556;28;20040;-68
2023/05/22 01:35:52;;;;;;;6.82;4.75;;;;;;;14.18;53.07;98587.94;5043437;28;20111;-68
2023/05/22 01:38:19;;;;;;;7.10;3.78;;;;;;;14.13;53.35;98588.88;5035002;28;20033;-68
2023/05/22 01:40:45;;;;;;;6.55;3.92;;;;;;;14.09;53.43;98585.94;5046323;28;20064;-68
2023/05/22 01:43:12;;;;;;;6.78;4.10;;;;;;;14.04;53.42;98588.84;5053296;28;20044;-68
2023/05/22 01:45:37;;;;;;;7.43;4.00;;;;;;;14.01;53.46;98589.47;5045566;28;20107;-68
2023/05/22 01:48:03;;;;;;;5.85;4.07;;;;;;;13.96;53.43;98595.94;5037610;28;20109;-68
2023/05/22 01:50:28;;;;;;;6.45;4.25;;;;;;;13.93;53.55;98595.75;5033491;28;20036;-68
2023/05/22 01:53:36;;;;;;;6.03;3.83;;;;;;;13.86;53.57;98601.72;5047974;28;20032;-67
2023/05/22 01:56:18;;;;;;;9.55;4.82;;;;;;;13.80;53.77;98598.28;5030167;28;20053;-68
2023/05/22 01:58:56;;;;;;;8.38;4.20;;;;;;;13.76;53.73;98596.44;5037876;28;20029;-67
2023/05/22 02:01:25;;;;;;;6.78;4.03;;;;;;;13.72;53.82;98598.19;5034641;28;20030;-68
2023/05/22 02:03:55;;;;;;;5.00;4.18;;;;;;;13.67;53.91;98588.94;5042619;28;20025;-68
2023/05/22 02:06:25;;;;;;;6.78;3.60;;;;;;;13.63;53.86;98593.47;5050981;28;20032;-68
2023/05/22 02:08:52;;;;;;;11.60;4.00;;;;;;;13.60;53.90;98593.25;5041793;28;20386;-68
2023/05/22 02:11:21;;;;;;;7.90;3.88;;;;;;;13.54;53.84;98589.81;5032078;28;20067;-68
2023/05/22 02:13:47;;;;;;;8.02;3.72;;;;;;;13.49;54.29;98588.00;5043922;28;20048;-67
2023/05/22 02:16:13;;;;;;;6.40;3.92;;;;;;;13.46;54.15;98585.06;5052338;28;20028;-67
2023/05/22 02:18:40;;;;;;;4.78;3.97;;;;;;;13.41;54.29;98588.75;5032921;28;20021;-68
2023/05/22 02:21:07;;;;;;;6.30;3.75;;;;;;;13.36;54.13;98591.59;5038637;28;20130;-67
2023/05/22 02:23:33;;;;;;;6.45;4.10;;;;;;;13.32;54.34;98588.63;5042575;28;20037;-68
2023/05/22 02:25:58;;;;;;;6.60;3.92;;;;;;;13.26;54.35;98589.88;5049781;28;20033;-68
2023/05/22 02:28:23;;;;;;;8.02;4.18;;;;;;;13.22;54.59;98584.19;5050118;28;20044;-68
2023/05/22 02:30:49;;;;;;;10.43;4.32;;;;;;;13.19;54.57;98590.31;5044137;28;20029;-68
2023/05/22 02:33:16;;;;;;;11.73;5.22;;;;;;;13.15;54.71;98588.50;5048600;28;20039;-67
2023/05/22 02:35:42;;;;;;;10.32;5.78;;;;;;;13.12;54.67;98587.16;5032206;28;20136;-67
2023/05/22 02:38:08;;;;;;;9.80;5.38;;;;;;;13.08;54.90;98588.91;5040349;28;20100;-68
2023/05/22 02:40:33;;;;;;;11.15;4.93;;;;;;;13.04;54.48;98591.47;5048483;28;20048;-67
2023/05/22 02:42:59;;;;;;;9.10;5.00;;;;;;;13.00;54.87;98584.97;5034056;28;20470;-67
2023/05/22 02:45:24;;;;;;;8.20;5.22;;;;;;;12.97;54.63;98582.03;5046776;28;20504;-67
2023/05/22 02:47:49;;;;;;;6.82;5.25;;;;;;;12.93;54.84;98585.38;5043374;28;20389;-67
2023/05/22 02:50:15;;;;;;;9.65;4.80;;;;;;;12.89;55.22;98587.13;5050217;28;20025;-67
2023/05/22 02:52:40;;;;;;;7.78;5.55;;;;;;;12.86;55.04;98584.16;5047409;28;20678;-67
2023/05/22 02:55:07;;;;;;;10.65;5.53;;;;;;;12.84;55.44;98589.19;5049911;28;20029;-67
2023/05/22 02:57:32;;;;;;;11.50;5.60;;;;;;;12.79;55.38;98581.84;5039778;28;20494;-68
2023/05/22 02:59:58;;;;;;;10.77;6.05;;;;;;;12.76;55.24;98590.72;5034213;28;20067;-68
2023/05/22 03:02:27;;;;;;;11.95;6.07;;;;;;;12.74;55.19;98587.44;5049500;28;20123;-68
2023/05/22 03:04:53;;;;;;;10.57;5.82;;;;;;;12.72;55.68;98586.94;5050237;28;20478;-68
2023/05/22 03:07:20;;;;;;;10.90;5.38;;;;;;;12.68;55.53;98581.25;5040770;28;20049;-68
2023/05/22 03:09:45;;;;;;;10.60;5.97;;;;;;;12.67;55.20;98585.13;5039397;28;20583;-68
2023/05/22 03:12:11;;;;;;;16.67;5.40;;;;;;;12.65;55.70;98582.66;5052365;28;20057;-68
2023/05/22 03:14:36;;;;;;;11.68;5.30;;;;;;;12.65;55.87;98584.59;5050621;28;20025;-69
2023/05/22 03:17:02;;;;;;;9.48;5.22;;;;;;;12.63;55.75;98579.41;5045394;28;20028;-68
2023/05/22 03:19:28;;;;;;;9.68;5.30;;;;;;;12.62;55.93;98583.28;5032015;28;20486;-69
2023/05/22 03:21:53;;;;;;;11.65;5.32;;;;;;;12.61;55.90;98580.84;5034088;28;20098;-69
2023/05/22 03:24:18;;;;;;;9.35;4.65;;;;;;;12.60;55.67;98581.97;5051890;28;20110;-69
2023/05/22 03:26:44;;;;;;;7.50;4.72;;;;;;;12.59;56.34;98596.84;5048297;28;20034;-69
2023/05/22 03:29:09;;;;;;;9.70;4.85;;;;;;;12.56;56.14;98590.03;5043821;28;20032;-68
2023/05/22 03:31:35;;;;;;;9.95;4.90;;;;;;;12.56;56.05;98597.44;5051722;28;20424;-68
2023/05/22 03:34:01;;;;;;;6.63;4.80;;;;;;;12.55;56.25;98593.06;5051934;28;20032;-68
2023/05/22 03:36:28;;;;;;;5.75;4.05;;;;;;;12.53;56.12;98582.38;5047223;28;20032;-68
2023/05/22 03:38:53;;;;;;;6.90;4.68;;;;;;;12.55;56.54;98587.56;5044547;28;20099;-69
2023/05/22 03:41:19;;;;;;;6.90;4.38;;;;;;;12.56;56.31;98591.94;5044403;28;20128;-68
2023/05/22 03:43:45;;;;;;;7.38;4.35;;;;;;;12.57;56.79;98602.66;5041781;28;20021;-68
2023/05/22 03:46:10;;;;;;;10.70;4.32;;;;;;;12.58;56.79;98592.44;5037546;28;20068;-69
2023/05/22 03:48:36;;;;;;;7.82;4.70;;;;;;;12.58;56.44;98600.69;5033763;28;20120;-69
2023/05/22 03:51:01;;;;;;;6.63;4.72;;;;;;;12.59;56.35;98592.16;5032144;28;20053;-69
2023/05/22 03:53:26;;;;;;;10.25;4.13;;;;;;;12.60;56.97;98599.28;5047744;28;20852;-68
2023/05/22 03:55:52;;;;;;;6.25;4.28;;;;;;;12.63;56.60;98592.34;5041978;28;20079;-69
2023/05/22 03:58:17;;;;;;;6.35;4.28;;;;;;;12.65;56.43;98598.38;5046202;28;20044;-68
2023/05/22 04:00:45;;;;;;;7.20;3.85;;;;;;;12.68;56.82;98600.50;5050925;28;20111;-69
2023/05/22 04:03:11;;;;;;;6.47;3.67;;;;;;;12.72;56.74;98597.94;5051455;28;20028;-68
2023/05/22 04:05:38;;;;;;;5.95;4.20;;;;;;;12.76;56.88;98587.94;5035198;28;20037;-69
2023/05/22 04:08:03;;;;;;;7.90;4.10;;;;;;;12.80;57.19;98591.72;5044955;28;20041;-69
2023/05/22 04:10:28;;;;;;;5.88;3.80;;;;;;;12.84;56.95;98583.69;5044701;28;20111;-69
2023/05/22 04:12:54;;;;;;;5.53;3.58;;;;;;;12.88;57.02;98585.50;5054642;28;20116;-68
2023/05/22 04:15:20;;;;;;;6.30;3.80;;;;;;;12.92;56.93;98591.19;5054731;28;20052;-69
2023/05/22 04:17:46;;;;;;;6.95;3.60;;;;;;;12.97;56.99;98590.28;5045278;28;20026;-69
2023/05/22 04:20:11;;;;;;;7.28;3.70;;;;;;;13.01;57.10;98591.28;5035422;28;20136;-68
2023/05/22 04:22:38;;;;;;;7.18;4.10;;;;;;;13.04;57.00;98591.47;5047950;28;20052;-68
2023/05/22 04:25:04;;;;;;;5.78;3.50;;;;;;;13.08;56.80;98589.75;5045554;28;20030;-69
2023/05/22 04:27:29;;;;;;;6.72;3.95;;;;;;;13.12;56.86;98587.16;5034728;28;20037;-69
2023/05/22 04:29:54;;;;;;;4.95;3.33;;;;;;;13.20;57.28;98591.16;5039149;28;20040;-69
2023/05/22 04:32:22;;;;;;;5.20;3.10;;;;;;;13.24;56.90;98584.69;5053521;28;20037;-69
2023/05/22 04:34:51;;;;;;;4.40;3.33;;;;;;;13.30;57.07;98584.56;5045740;28;20036;-68
2023/05/22 04:37:18;;;;;;;7.25;3.10;;;;;;;13.35;57.11;98587.22;5041040;28;20037;-69
2023/05/22 04:39:44;;;;;;;5.93;3.28;;;;;;;13.39;57.20;98586.28;5052704;28;20049;-69
2023/05/22 04:42:14;;;;;;;4.60;2.60;;;;;;;13.46;56.99;98585.06;5047017;28;20026;-69
2023/05/22 04:44:41;;;;;;;4.68;3.10;;;;;;;13.52;57.01;98581.06;5033440;28;20052;-69
2023/05/22 04:47:10;;;;;;;3.92;3.10;;;;;;;13.60;57.00;98590.50;5052718;28;20040;-68
2023/05/22 04:49:39;;;;;;;;;;;;;;;13.65;56.91;98582.91;5045290;28;20025;-69
2023/05/22 04:52:05;;;;;;;4.30;3.13;;;;;;;13.73;57.06;98583.28;5040194;28;19931;-69
2023/05/22 04:54:31;;;;;;;4.60;2.90;;;;;;;13.76;57.08;98580.75;5054408;28;20108;-68
2023/05/22 04:56:57;;;;;;;4.53;3.10;;;;;;;13.83;56.96;98583.88;5051025;28;20108;-69
2023/05/22 04:59:25;;;;;;;4.78;2.65;;;;;;;13.91;56.89;98581.47;5044244;28;20223;-68
2023/05/22 05:01:51;;;;;;;2.95;2.50;;;;;;;13.97;57.06;98574.69;5035376;28;20113;-68
2023/05/22 05:04:16;;;;;;;3.30;2.70;;;;;;;14.03;56.91;98578.94;5041677;28;20116;-68
2023/05/22 05:06:42;;;;;;;6.93;3.00;;;;;;;14.09;57.04;98572.16;5050835;28;20075;-69
2023/05/22 05:09:08;;;;;;;4.88;2.65;;;;;;;14.17;56.90;98581.59;5052174;28;20091;-68
2023/05/22 05:11:34;;;;;;;5.00;3.10;;;;;;;14.23;57.26;98576.78;5051079;28;20029;-69
2023/05/22 05:13:59;;;;;;;4.63;2.55;;;;;;;14.28;56.97;98579.38;5034767;28;20025;-69
2023/05/22 05:16:25;;;;;;;4.50;2.55;;;;;;;14.34;56.82;98583.63;5054268;28;20033;-69
2023/05/22 05:18:51;;;;;;;3.70;2.70;;;;;;;14.39;56.80;98577.97;5062055;28;20017;-69
2023/05/22 05:21:17;;;;;;;3.55;2.78;;;;;;;14.47;56.87;98583.84;5052504;28;20025;-68
2023/05/22 05:23:42;;;;;;;4.40;2.88;;;;;;;14.54;57.06;98584.19;5049338;28;20095;-69
2023/05/22 05:26:08;;;;;;;4.88;2.97;;;;;;;14.60;57.07;98585.69;5035669;28;20044;-68
2023/05/22 05:28:33;;;;;;;3.83;2.60;;;;;;;14.66;56.96;98581.66;5053583;28;20029;-69
2023/05/22 05:30:59;;;;;;;4.78;3.00;;;;;;;14.73;56.75;98595.78;5053368;28;20366;-68
2023/05/22 05:33:24;;;;;;;5.10;2.88;;;;;;;14.79;57.25;98585.44;5049274;28;20021;-67
2023/05/22 05:35:51;;;;;;;6.40;2.80;;;;;;;14.85;56.92;98586.91;5046628;28;20040;-68
2023/05/22 05:38:17;;;;;;;3.85;2.83;;;;;;;14.92;56.73;98588.38;5049715;28;20496;-68
2023/05/22 05:40:46;;;;;;;6.32;3.20;;;;;;;14.98;56.85;98587.09;5054173;28;20041;-68
2023/05/22 05:43:14;;;;;;;6.57;3.10;;;;;;;15.03;56.85;98585.00;5053842;28;20029;-67
2023/05/22 05:45:41;;;;;;;6.60;2.90;;;;;;;15.09;56.92;98588.41;5049641;28;20508;-67
2023/05/22 05:48:07;;;;;;;4.35;2.72;;;;;;;15.17;57.15;98586.78;5042934;28;20040;-67
2023/05/22 05:50:32;;;;;;;4.97;3.00;;;;;;;15.24;57.00;98587.13;5048484;28;20033;-66
2023/05/22 05:52:57;;;;;;;5.28;2.90;;;;;;;15.30;56.94;98580.28;5049382;28;20029;-68
2023/05/22 05:55:23;;;;;;;7.53;3.75;;;;;;;15.38;56.67;98581.41;5052365;28;20523;-67
2023/05/22 05:57:48;;;;;;;5.03;3.25;;;;;;;15.44;57.04;98574.59;5049178;28;20029;-67
2023/05/22 06:00:14;;;;;;;3.63;2.80;;;;;;;15.53;56.64;98582.06;5053398;28;20116;-68
2023/05/22 06:02:40;;;;;;;6.20;2.60;;;;;;;15.61;56.65;98582.06;5056532;28;20033;-68
2023/05/22 06:05:07;;;;;;;4.88;2.78;;;;;;;15.70;57.07;98576.50;5052368;28;20106;-68
2023/05/22 06:07:33;;;;;;;5.10;2.97;;;;;;;15.78;57.11;98569.38;5046935;28;20501;-68
2023/05/22 06:09:58;;;;;;;6.43;2.75;;;;;;;15.89;56.78;98567.09;5052062;28;20099;-68
2023/05/22 06:12:24;;;;;;;4.28;2.55;;;;;;;15.98;56.11;98575.34;5034925;28;20025;-66
2023/05/22 06:14:49;;;;;;;5.82;2.55;;;;;;;16.06;56.00;98569.00;5047248;28;20029;-67
2023/05/22 06:17:15;;;;;;;4.03;2.47;;;;;;;16.14;55.92;98568.16;5052284;28;20048;-67
2023/05/22 06:19:41;;;;;;;4.45;2.50;;;;;;;16.22;55.94;98569.25;5052190;28;20039;-67
2023/05/22 06:22:07;;;;;;;4.18;2.78;;;;;;;16.30;55.38;98568.41;5049918;28;20093;-65
2023/05/22 06:24:32;;;;;;;2.95;2.30;;;;;;;16.37;55.45;98565.13;5049645;28;20466;-66
2023/05/22 06:26:58;;;;;;;4.47;2.50;;;;;;;16.44;55.37;98568.19;5049369;28;20043;-65
2023/05/22 06:29:23;;;;;;;4.93;2.85;;;;;;;16.53;54.77;98562.59;5049112;28;20026;-65
2023/05/22 06:31:49;;;;;;;7.53;2.90;;;;;;;16.60;55.05;98565.66;5048039;28;20477;-66
2023/05/22 06:34:14;;;;;;;5.47;2.40;;;;;;;16.70;54.79;98563.66;5045576;28;20440;-66
2023/05/22 06:36:41;;;;;;;5.05;2.60;;;;;;;16.77;54.68;98573.06;5047945;28;20116;-66
2023/05/22 06:39:07;;;;;;;6.22;2.90;;;;;;;16.85;54.86;98562.28;5048146;28;20025;-65
2023/05/22 06:41:34;;;;;;;7.55;2.90;;;;;;;16.94;54.45;98568.56;5051525;28;20432;-64
2023/05/22 06:44:00;;;;;;;4.78;2.72;;;;;;;17.00;54.61;98561.72;5050048;28;20158;-67
2023/05/22 06:46:26;;;;;;;3.63;2.67;;;;;;;17.06;53.82;98562.31;5051493;28;20032;-65
2023/05/22 06:48:52;;;;;;;4.97;2.90;;;;;;;17.13;53.79;98567.31;5048860;28;20021;-65
2023/05/22 06:51:17;;;;;;;4.10;2.72;;;;;;;17.19;53.63;98571.50;5047789;28;20033;-65
2023/05/22 06:53:42;;;;;;;3.58;2.35;;;;;;;17.24;53.29;98574.09;5051804;28;20035;-66
2023/05/22 06:56:08;;;;;;;4.05;2.70;;;;;;;17.28;53.16;98577.81;5051816;28;20067;-67
2023/05/22 06:58:33;;;;;;;5.32;2.60;;;;;;;17.34;53.12;98572.88;5049768;28;20061;-67
2023/05/22 07:00:59;;;;;;;4.10;2.55;;;;;;;17.36;52.84;98571.38;5051160;28;20033;-67
2023/05/22 07:03:26;;;;;;;6.57;2.80;;;;;;;17.37;52.44;98573.00;5042007;28;20037;-67
2023/05/22 07:05:52;;;;;;;6.07;2.67;;;;;;;17.38;52.70;98568.25;5044216;28;20090;-66
2023/05/22 07:08:17;;;;;;;6.38;2.50;;;;;;;17.39;52.43;98570.72;5047771;28;20041;-67
2023/05/22 07:10:43;;;;;;;5.70;2.60;;;;;;;17.44;52.38;98572.47;5047901;28;20021;-67
2023/05/22 07:13:08;;;;;;;3.58;2.70;;;;;;;17.49;52.32;98571.47;5050812;28;20083;-67
2023/05/22 07:15:33;;;;;;;4.68;2.40;;;;;;;17.55;52.52;98572.84;5048768;28;20389;-67
2023/05/22 07:17:59;;;;;;;5.60;2.58;;;;;;;17.61;52.40;98568.72;5049273;28;20025;-68
2023/05/22 07:20:25;;;;;;;4.82;2.53;;;;;;;17.66;52.28;98564.94;5048180;28;20520;-66
2023/05/22 07:22:50;;;;;;;5.72;2.50;;;;;;;17.70;51.90;98563.91;5050462;28;20025;-66
2023/05/22 07:25:15;;;;;;;5.68;2.75;;;;;;;17.79;52.15;98568.56;5050611;28;20029;-66
2023/05/22 07:27:41;;;;;;;4.07;2.40;;;;;;;17.85;51.78;98556.91;5048965;28;20083;-67
2023/05/22 07:30:07;;;;;;;4.43;2.40;;;;;;;17.92;51.61;98558.31;5051561;28;20037;-67
2023/05/22 07:32:32;;;;;;;4.78;2.50;;;;;;;17.97;51.57;98558.09;5049754;28;20108;-67
2023/05/22 07:34:58;;;;;;;4.90;2.20;;;;;;;18.02;51.10;98557.91;5050056;28;20222;-66
2023/05/22 07:37:23;;;;;;;5.07;2.28;;;;;;;18.08;50.93;98556.53;5052258;28;20053;-67
2023/05/22 07:39:49;;;;;;;3.20;2.40;;;;;;;18.16;50.78;98549.25;5054215;28;20045;-67
2023/05/22 07:42:14;;;;;;;5.03;2.38;;;;;;;18.23;50.74;98557.00;5054870;28;20578;-66
2023/05/22 07:44:40;;;;;;;4.05;2.60;;;;;;;18.32;50.68;98552.16;5054829;28;20062;-66
2023/05/22 07:47:05;;;;;;;4.05;2.38;;;;;;;18.38;50.30;98550.78;5054764;28;20037;-66
2023/05/22 07:49:31;;;;;;;4.80;2.38;;;;;;;18.45;50.17;98551.00;5053663;28;20461;-67
2023/05/22 07:51:57;;;;;;;2.67;2.20;;;;;;;18.55;50.18;98555.28;5054577;28;20029;-67
2023/05/22 07:54:22;;;;;;;3.47;2.13;;;;;;;18.63;50.06;98547.19;5054206;28;20033;-66
2023/05/22 07:56:48;;;;;;;5.25;2.38;;;;;;;18.76;50.16;98548.78;5053895;28;20036;-66
2023/05/22 07:59:14;;;;;;;5.75;2.47;;;;;;;18.85;49.82;98543.91;5056741;28;20029;-66
2023/05/22 08:01:43;;;;;;;4.65;2.13;;;;;;;18.97;49.40;98545.88;5057842;28;20112;-65
2023/05/22 08:04:08;;;;;;;3.65;2.05;;;;;;;19.10;48.94;98548.66;5054729;28;20032;-65
2023/05/22 08:06:34;;;;;;;3.42;2.08;;;;;;;19.20;48.50;98542.59;5055080;28;20106;-66
2023/05/22 08:09:01;;;;;;;4.85;2.10;;;;;;;19.27;48.28;98542.81;5050244;28;20038;-65
2023/05/22 08:11:27;;;;;;;3.30;1.90;;;;;;;19.37;47.96;98537.91;5048960;28;20021;-67
2023/05/22 08:13:53;;;;;;;4.15;2.05;;;;;;;19.46;47.53;98544.13;5049512;28;20469;-66
2023/05/22 08:16:19;;;;;;;3.25;2.10;;;;;;;19.55;47.36;98525.31;5055909;28;20040;-65
2023/05/22 08:18:44;;;;;;;5.93;1.77;;;;;;;19.64;46.89;98534.31;5053784;28;20443;-66
2023/05/22 08:21:10;;;;;;;4.32;2.08;;;;;;;19.71;46.77;98532.91;5054050;28;20393;-66
2023/05/22 08:23:37;;;;;;;4.85;2.08;;;;;;;19.76;46.01;98532.66;5054292;28;20434;-65
2023/05/22 08:26:03;;;;;;;2.25;1.65;;;;;;;19.84;45.53;98536.41;5054145;28;20473;-66
2023/05/22 08:28:28;;;;;;;4.07;1.95;;;;;;;19.89;45.76;98528.63;5053556;28;20048;-67
2023/05/22 08:30:54;;;;;;;4.43;1.90;;;;;;;19.98;45.62;98531.25;5054221;28;20037;-68
2023/05/22 08:33:19;;;;;;;3.28;2.10;;;;;;;20.07;45.12;98531.09;5053779;28;20025;-67
2023/05/22 08:35:44;;;;;;;2.83;2.17;;;;;;;20.14;44.85;98538.81;5052815;28;20059;-66
2023/05/22 08:38:10;;;;;;;3.10;2.00;;;;;;;20.22;44.81;98521.13;5052894;28;20645;-67
2023/05/22 08:40:37;;;;;;;4.28;2.00;;;;;;;20.29;44.56;98523.25;5053006;28;20086;-67
2023/05/22 08:43:04;;;;;;;3.88;2.08;;;;;;;20.36;44.37;98520.66;5053832;28;20039;-67
2023/05/22 08:45:32;;;;;;;3.70;2.00;;;;;;;20.47;44.13;98520.91;5054015;28;20044;-67
2023/05/22 08:47:59;;;;;;;4.20;2.00;;;;;;;20.55;43.88;98519.91;5053644;28;20063;-67
2023/05/22 08:50:24;;;;;;;4.70;2.00;;;;;;;20.62;43.87;98527.63;5052946;28;20029;-68
2023/05/22 08:52:51;;;;;;;5.90;2.25;;;;;;;20.68;43.71;98515.88;5053752;28;20032;-67
2023/05/22 08:55:18;;;;;;;4.85;2.22;;;;;;;20.75;43.67;98534.72;5048442;28;20020;-68
2023/05/22 08:57:45;;;;;;;5.47;2.05;;;;;;;20.84;43.36;98520.59;5048061;28;20078;-71
2023/05/22 09:00:11;;;;;;;4.63;2.35;;;;;;;20.91;43.37;98519.97;5044517;28;20036;-67
2023/05/22 09:02:40;;;;;;;3.35;2.25;;;;;;;20.97;43.29;98516.53;5050055;28;20243;-66
2023/05/22 09:05:07;;;;;;;5.57;2.78;;;;;;;21.02;43.16;98523.78;5047673;28;20032;-67
2023/05/22 09:07:33;;;;;;;4.47;2.33;;;;;;;21.04;42.78;98523.44;5052440;28;20095;-67
2023/05/22 09:09:59;;;;;;;4.15;2.60;;;;;;;21.06;42.97;98515.50;5053670;28;20031;-67
2023/05/22 09:12:26;;;;;;;3.85;2.33;;;;;;;21.08;42.88;98515.97;5051655;28;20067;-67
2023/05/22 09:14:51;;;;;;;5.53;2.60;;;;;;;21.12;42.47;98526.00;5053460;28;20053;-67
2023/05/22 09:17:17;;;;;;;6.18;2.58;;;;;;;21.12;42.37;98517.63;5052655;28;20060;-68
2023/05/22 09:19:46;;;;;;;4.13;2.47;;;;;;;21.17;42.65;98522.13;5052754;28;20400;-68
2023/05/22 09:22:12;;;;;;;3.33;2.45;;;;;;;21.23;42.73;98512.28;5053723;28;20086;-68
2023/05/22 09:24:43;;;;;;;4.30;2.65;;;;;;;21.26;42.39;98519.13;5053474;28;20354;-68
2023/05/22 09:27:10;;;;;;;4.18;2.42;;;;;;;21.30;42.32;98520.00;5053344;28;20469;-67
2023/05/22 09:29:48;;;;;;;7.93;2.60;;;;;;;21.34;42.31;98520.88;5053239;28;20481;-67
2023/05/22 09:32:16;;;;;;;4.63;2.80;;;;;;;21.39;42.00;98514.19;5053330;28;20147;-67
2023/05/22 09:34:43;;;;;;;5.43;2.45;;;;;;;21.43;42.00;98517.88;5053339;28;20037;-67
2023/05/22 09:37:11;;;;;;;3.42;2.50;;;;;;;21.48;41.92;98513.97;5053439;28;20069;-66
2023/05/22 09:39:45;;;;;;;4.65;2.42;;;;;;;21.52;41.61;98510.09;5049495;28;20045;-67
2023/05/22 09:42:13;;;;;;;4.60;2.40;;;;;;;21.57;41.27;98517.34;5052945;28;20032;-67
2023/05/22 09:44:38;;;;;;;3.47;2.03;;;;;;;21.62;41.53;98505.91;5052994;28;20128;-66
2023/05/22 09:47:08;;;;;;;4.63;2.30;;;;;;;21.68;41.52;98504.44;5053081;28;20524;-68
2023/05/22 09:49:41;;;;;;;5.38;2.60;;;;;;;21.79;41.59;98510.22;5053200;28;20557;-67
2023/05/22 09:52:08;;;;;;;5.50;2.42;;;;;;;21.85;41.03;98510.69;5053068;28;20068;-68
2023/05/22 09:54:34;;;;;;;5.55;2.70;;;;;;;21.92;41.13;98510.84;5052878;28;20330;-68
2023/05/22 09:57:04;;;;;;;6.30;2.53;;;;;;;21.99;40.93;98499.81;5056796;28;20102;-68
2023/05/22 09:59:31;;;;;;;4.38;2.60;;;;;;;22.08;41.02;98502.34;5052278;28;20408;-67
2023/05/22 10:01:57;;;;;;;4.20;2.47;;;;;;;22.15;40.72;98499.66;5056299;28;20116;-68
2023/05/22 10:04:24;;;;;;;4.78;2.30;;;;;;;22.22;40.33;98503.75;5049880;28;20101;-67
2023/05/22 10:06:52;;;;;;;4.00;2.33;;;;;;;22.28;40.04;98500.28;5049770;28;20059;-68
2023/05/22 10:09:22;;;;;;;5.00;2.50;;;;;;;22.34;40.03;98497.16;5046206;28;20107;-67
2023/05/22 10:11:52;;;;;;;5.82;2.33;;;;;;;22.40;39.23;98492.88;5050325;28;20473;-67
2023/05/22 10:14:17;;;;;;;3.97;2.40;;;;;;;22.43;39.64;98495.75;5047853;28;20075;-69
2023/05/22 10:16:44;;;;;;;5.20;2.80;;;;;;;22.48;39.54;98491.84;5051290;28;20033;-68
2023/05/22 10:19:10;;;;;;;3.70;2.50;;;;;;;22.55;39.57;98488.34;5051560;28;20082;-69
2023/05/22 10:21:37;;;;;;;4.65;2.38;;;;;;;22.62;39.71;98490.47;5052372;28;21011;-68
2023/05/22 10:24:05;;;;;;;4.57;2.50;;;;;;;22.69;39.51;98491.34;5050799;28;20155;-66
2023/05/22 10:26:31;;;;;;;4.47;2.35;;;;;;;22.74;39.74;98491.03;5051500;28;20037;-66
2023/05/22 10:29:03;;;;;;;4.53;2.50;;;;;;;22.79;39.51;98492.69;5046228;28;20454;-65
2023/05/22 10:32:13;;;;;;;3.33;2.00;;;;;;;22.80;38.82;98485.91;5054768;28;20508;-67
2023/05/22 10:35:00;;;;;;;5.53;2.40;;;;;;;22.78;38.82;98482.69;5050605;28;20036;-67
2023/05/22 10:37:43;;;;;;;3.22;2.17;;;;;;;22.82;38.80;98482.75;5043846;28;20492;-66
2023/05/22 10:40:11;;;;;;;4.00;2.55;;;;;;;22.83;38.64;98482.34;5048571;28;20524;-68
2023/05/22 10:42:37;;;;;;;6.18;2.50;;;;;;;22.85;38.56;98487.56;5050252;28;20103;-68
2023/05/22 10:45:06;;;;;;;3.92;2.38;;;;;;;22.88;38.51;98484.84;5046679;28;20056;-67
2023/05/22 10:47:34;;;;;;;4.73;2.30;;;;;;;22.95;38.76;98481.31;5043163;28;20032;-67
2023/05/22 10:50:08;;;;;;;3.47;2.35;;;;;;;23.03;38.90;98476.63;5048923;28;22241;-66
2023/05/22 10:52:34;;;;;;;3.17;2.17;;;;;;;23.07;38.82;98485.06;5051624;28;20120;-66
2023/05/22 10:55:00;;;;;;;5.15;2.75;;;;;;;23.11;39.01;98475.53;5050352;28;20028;-67
2023/05/22 10:57:31;;;;;;;4.40;2.42;;;;;;;23.15;38.63;98470.00;5048743;28;20021;-66
2023/05/22 11:00:23;;;;;;;4.28;2.40;;;;;;;23.16;38.79;98475.19;5051483;28;20055;-67
2023/05/22 11:02:48;;;;;;;6.47;3.15;;;;;;;23.17;38.44;98478.81;5049618;28;20504;-66
2023/05/22 11:05:20;;;;;;;6.28;2.38;;;;;;;23.17;38.66;98479.59;5047985;28;20033;-68
2023/05/22 11:07:46;;;;;;;6.40;2.67;;;;;;;23.18;38.63;98472.81;5050562;28;20060;-67
2023/05/22 11:10:11;;;;;;;6.65;2.58;;;;;;;23.17;38.40;98468.41;5050274;28;20078;-67
2023/05/22 11:12:36;;;;;;;2.90;2.35;;;;;;;23.17;38.85;98471.22;5047802;28;20094;-68
2023/05/22 11:15:09;;;;;;;3.70;2.70;;;;;;;23.19;38.65;98468.03;5049942;28;20470;-67
2023/05/22 11:17:43;;;;;;;6.40;2.45;;;;;;;23.18;38.78;98467.22;5049715;28;20037;-65
2023/05/22 11:20:21;;;;;;;4.20;2.60;;;;;;;23.20;38.98;98470.44;5051750;28;20017;-67
2023/05/22 11:23:06;;;;;;;5.25;2.67;;;;;;;23.24;38.82;98461.31;5051241;28;20070;-66
2023/05/22 11:25:33;;;;;;;3.58;2.10;;;;;;;23.28;38.53;98459.38;5054410;28;20132;-68
2023/05/22 11:28:01;;;;;;;4.40;2.47;;;;;;;23.29;38.46;98461.00;5050262;28;20040;-67
2023/05/22 11:30:29;;;;;;;4.72;2.60;;;;;;;23.32;38.08;98463.03;5044681;28;20588;-67
2023/05/22 11:32:56;;;;;;;2.88;2.33;;;;;;;23.36;38.39;98455.47;5047959;28;20029;-66
2023/05/22 11:35:22;;;;;;;4.75;2.50;;;;;;;23.45;38.83;98458.75;5051011;28;20116;-67